Time;durP1;ratioP1;P1;durP2;ratioP2;P2;SDS_P1;SDS_P2;PMS_P1;PMS_P2;Temp;Humidity;BMP_temperature;BMP_pressure;BME280_temperature;BME280_humidity;BME280_pressure;Samples;Min_cycle;Max_cycle;Signal;HPM_P1;HPM_P2
2023/01/30 00:01:26;;;;;;;56.93;29.43;;;;;;;;;;5017187;28;20516;-62
2023/01/30 00:03:53;;;;;;;52.90;27.40;;;;;;;;;;5016578;28;20292;-62
2023/01/30 00:06:21;;;;;;;56.23;28.57;;;;;;;;;;5017094;28;20228;-61
2023/01/30 00:08:48;;;;;;;52.00;27.67;;;;;;;;;;5016672;28;20221;-61
2023/01/30 00:11:18;;;;;;;56.53;28.53;;;;;;;;;;5016475;28;20212;-61
2023/01/30 00:13:47;;;;;;;52.50;28.03;;;;;;;;;;5016615;28;20205;-61
2023/01/30 00:16:14;;;;;;;51.33;26.90;;;;;;;;;;5016549;28;20248;-61
2023/01/30 00:18:42;;;;;;;50.57;26.63;;;;;;;;;;5016485;28;20308;-61
2023/01/30 00:21:11;;;;;;;58.03;29.23;;;;;;;;;;5016283;28;20221;-61
2023/01/30 00:23:38;;;;;;;58.07;27.63;;;;;;;;;;5016294;28;20209;-62
2023/01/30 00:26:06;;;;;;;53.30;28.50;;;;;;;;;;5016377;28;20576;-62
2023/01/30 00:28:34;;;;;;;48.07;26.53;;;;;;;;;;5016654;28;20209;-62
2023/01/30 00:31:03;;;;;;;49.50;26.20;;;;;;;;;;5016567;28;20197;-62
2023/01/30 00:33:32;;;;;;;48.77;26.37;;;;;;;;;;5015194;28;20205;-61
2023/01/30 00:36:00;;;;;;;52.37;26.47;;;;;;;;;;5016100;28;20205;-62
2023/01/30 00:38:27;;;;;;;50.93;25.20;;;;;;;;;;5016034;28;20221;-61
2023/01/30 00:40:54;;;;;;;53.17;26.43;;;;;;;;;;5016503;28;20236;-62
2023/01/30 00:49:00;;;;;;;42.10;23.07;;;;;;;;;;5016330;28;20194;-61
2023/01/30 00:51:27;;;;;;;61.23;32.03;;;;;;;;;;5015094;28;20201;-61
2023/01/30 00:53:54;;;;;;;48.30;24.83;;;;;;;;;;5016467;28;20201;-61
2023/01/30 00:56:22;;;;;;;45.90;24.00;;;;;;;;;;5014901;28;20240;-62
2023/01/30 00:58:49;;;;;;;44.37;22.40;;;;;;;;;;5015732;28;20257;-61
2023/01/30 01:01:16;;;;;;;41.13;20.50;;;;;;;;;;5014639;28;20208;-62
2023/01/30 01:03:43;;;;;;;38.13;20.67;;;;;;;;;;5015882;28;20275;-62
2023/01/30 01:06:11;;;;;;;35.67;20.17;;;;;;;;;;5015411;28;20205;-62
2023/01/30 01:08:38;;;;;;;38.87;20.30;;;;;;;;;;5014195;28;20213;-62
2023/01/30 01:11:05;;;;;;;36.17;19.63;;;;;;;;;;5014307;28;20213;-61
2023/01/30 01:13:32;;;;;;;45.27;22.83;;;;;;;;;;5015285;28;20642;-61
2023/01/30 01:16:00;;;;;;;35.77;21.07;;;;;;;;;;5015533;28;20237;-61
2023/01/30 01:18:27;;;;;;;35.20;19.73;;;;;;;;;;5014340;28;20222;-62
2023/01/30 01:20:54;;;;;;;40.67;21.47;;;;;;;;;;5014267;28;20220;-61
2023/01/30 01:23:21;;;;;;;37.13;19.23;;;;;;;;;;5015150;28;20233;-61
2023/01/30 01:25:49;;;;;;;36.03;19.70;;;;;;;;;;5015116;28;20212;-62
2023/01/30 01:28:20;;;;;;;45.73;21.10;;;;;;;;;;5014301;28;20209;-62
2023/01/30 01:30:47;;;;;;;41.20;19.73;;;;;;;;;;5015173;28;20220;-61
2023/01/30 01:33:14;;;;;;;42.03;20.43;;;;;;;;;;5015171;28;20212;-62
2023/01/30 01:35:42;;;;;;;39.10;20.03;;;;;;;;;;5015240;28;20193;-62
2023/01/30 01:38:09;;;;;;;38.67;20.43;;;;;;;;;;5015331;28;20239;-62
2023/01/30 01:43:24;;;;;;;59.37;32.07;;;;;;;;;;5014988;28;20645;-62
2023/01/30 01:45:54;;;;;;;37.13;21.03;;;;;;;;;;5015619;28;20201;-61
2023/01/30 01:48:26;;;;;;;40.70;20.27;;;;;;;;;;5015114;28;20259;-62
2023/01/30 01:51:05;;;;;;;35.27;18.77;;;;;;;;;;5015110;28;20197;-62
2023/01/30 01:53:37;;;;;;;34.33;19.13;;;;;;;;;;5015412;28;20212;-61
2023/01/30 01:56:06;;;;;;;37.50;19.27;;;;;;;;;;4998083;28;20194;-61
2023/01/30 01:58:45;;;;;;;37.20;19.53;;;;;;;;;;5014184;28;20264;-61
2023/01/30 02:01:12;;;;;;;39.13;20.00;;;;;;;;;;5014237;28;20197;-61
2023/01/30 02:03:43;;;;;;;35.43;19.47;;;;;;;;;;5014832;28;20212;-61
2023/01/30 02:06:11;;;;;;;36.50;20.27;;;;;;;;;;5023251;28;20483;-63
2023/01/30 02:08:41;;;;;;;43.40;21.60;;;;;;;;;;5017838;28;20274;-62
2023/01/30 02:11:38;;;;;;;44.87;22.87;;;;;;;;;;5017386;28;20645;-61
2023/01/30 02:14:05;;;;;;;38.03;20.50;;;;;;;;;;5017751;28;20204;-62
2023/01/30 02:16:32;;;;;;;41.73;20.57;;;;;;;;;;5033963;28;20608;-61
2023/01/30 02:19:05;;;;;;;39.70;19.53;;;;;;;;;;5033930;28;20232;-62
2023/01/30 02:22:06;;;;;;;36.63;19.33;;;;;;;;;;5036061;28;20208;-61
2023/01/30 02:24:43;;;;;;;35.80;18.97;;;;;;;;;;5038230;28;20633;-61
2023/01/30 02:27:20;;;;;;;38.93;18.40;;;;;;;;;;5038953;28;20274;-62
2023/01/30 02:30:21;;;;;;;38.37;19.57;;;;;;;;;;5038355;28;20200;-62
2023/01/30 02:33:17;;;;;;;35.70;20.00;;;;;;;;;;5038025;28;20616;-61
2023/01/30 02:36:11;;;;;;;39.00;21.90;;;;;;;;;;5037082;28;20196;-62
2023/01/30 02:38:47;;;;;;;43.97;21.60;;;;;;;;;;5020991;28;20232;-61
2023/01/30 02:41:39;;;;;;;43.50;20.50;;;;;;;;;;5038180;28;20201;-61
2023/01/30 02:44:16;;;;;;;37.27;19.77;;;;;;;;;;5037007;28;20606;-62
2023/01/30 02:47:03;;;;;;;40.83;20.73;;;;;;;;;;5037159;28;20231;-61
2023/01/30 02:49:39;;;;;;;40.27;19.97;;;;;;;;;;5020914;28;20212;-61
2023/01/30 02:52:08;;;;;;;37.00;20.50;;;;;;;;;;5021662;28;20216;-61
2023/01/30 02:54:36;;;;;;;40.70;20.77;;;;;;;;;;5020622;28;20216;-62
2023/01/30 02:57:14;;;;;;;34.80;20.40;;;;;;;;;;5036856;28;20258;-61
2023/01/30 02:59:45;;;;;;;40.13;20.53;;;;;;;;;;5020831;28;20204;-61
2023/01/30 03:02:18;;;;;;;45.43;24.83;;;;;;;;;;5020608;28;20214;-61
2023/01/30 03:04:46;;;;;;;46.73;24.13;;;;;;;;;;5036613;28;20219;-61
2023/01/30 03:07:31;;;;;;;41.67;21.63;;;;;;;;;;5036783;28;20224;-62
2023/01/30 03:10:24;;;;;;;37.63;20.27;;;;;;;;;;5036679;28;20216;-61
2023/01/30 03:13:24;;;;;;;41.63;21.17;;;;;;;;;;5021479;28;20209;-61
2023/01/30 03:16:14;;;;;;;44.67;21.97;;;;;;;;;;5036369;28;20247;-61
2023/01/30 03:18:44;;;;;;;33.97;20.27;;;;;;;;;;5020409;28;20212;-61
2023/01/30 03:21:15;;;;;;;38.27;21.60;;;;;;;;;;5036712;28;20188;-61
2023/01/30 03:23:46;;;;;;;40.23;22.17;;;;;;;;;;5037277;28;20205;-61
2023/01/30 03:26:17;;;;;;;41.37;21.27;;;;;;;;;;5037071;28;20205;-62
2023/01/30 03:28:48;;;;;;;43.63;23.17;;;;;;;;;;5019983;28;20201;-61
2023/01/30 03:31:16;;;;;;;41.10;22.43;;;;;;;;;;5036346;28;20200;-61
2023/01/30 03:33:43;;;;;;;38.13;21.57;;;;;;;;;;5035258;28;20538;-61
2023/01/30 03:36:11;;;;;;;40.73;20.07;;;;;;;;;;5036246;28;20197;-61
2023/01/30 03:38:38;;;;;;;43.93;21.60;;;;;;;;;;5036054;28;20604;-62
2023/01/30 03:41:06;;;;;;;47.00;22.27;;;;;;;;;;5036221;28;20201;-62
2023/01/30 03:43:34;;;;;;;40.90;21.20;;;;;;;;;;5035843;28;20592;-63
2023/01/30 03:46:04;;;;;;;38.67;20.07;;;;;;;;;;5035871;28;20201;-62
2023/01/30 03:48:31;;;;;;;38.10;20.50;;;;;;;;;;5036102;28;20204;-61
2023/01/30 03:50:58;;;;;;;76.67;32.10;;;;;;;;;;5036659;28;20538;-61
2023/01/30 03:53:25;;;;;;;40.80;20.13;;;;;;;;;;5035892;28;20539;-61
2023/01/30 03:55:53;;;;;;;47.70;25.47;;;;;;;;;;5035939;28;20205;-61
2023/01/30 03:58:25;;;;;;;36.80;20.67;;;;;;;;;;5035813;28;20231;-61
2023/01/30 04:00:56;;;;;;;34.40;18.50;;;;;;;;;;5035826;28;20201;-61
2023/01/30 04:03:25;;;;;;;38.23;19.87;;;;;;;;;;5035929;28;20223;-61
2023/01/30 04:05:56;;;;;;;36.17;18.30;;;;;;;;;;5035451;28;20204;-62
2023/01/30 04:08:23;;;;;;;36.20;18.43;;;;;;;;;;5035737;28;20240;-61
2023/01/30 04:10:50;;;;;;;34.50;18.27;;;;;;;;;;5036409;28;20212;-61
2023/01/30 04:13:17;;;;;;;32.53;17.23;;;;;;;;;;5035835;28;20238;-61
2023/01/30 04:15:45;;;;;;;32.53;18.40;;;;;;;;;;5035130;28;20243;-61
2023/01/30 04:18:48;;;;;;;36.53;19.43;;;;;;;;;;5036414;28;20282;-61
2023/01/30 04:21:19;;;;;;;64.40;32.80;;;;;;;;;;5036015;28;20224;-61
2023/01/30 04:23:47;;;;;;;38.40;22.83;;;;;;;;;;5035963;28;20208;-61
2023/01/30 04:26:14;;;;;;;38.10;19.43;;;;;;;;;;5035568;28;20304;-62
2023/01/30 04:28:43;;;;;;;37.70;18.00;;;;;;;;;;5035459;28;20292;-62
2023/01/30 04:31:12;;;;;;;31.43;16.20;;;;;;;;;;5025591;28;20619;-61
2023/01/30 04:33:42;;;;;;;32.03;17.37;;;;;;;;;;5010061;28;20539;-61
2023/01/30 04:36:12;;;;;;;29.93;16.20;;;;;;;;;;5013352;28;20216;-61
2023/01/30 04:38:40;;;;;;;38.83;17.80;;;;;;;;;;5014817;28;20225;-61
2023/01/30 04:41:08;;;;;;;30.43;16.63;;;;;;;;;;5014835;28;20205;-62
2023/01/30 04:43:38;;;;;;;33.87;17.30;;;;;;;;;;5001285;28;20209;-62
2023/01/30 04:46:24;;;;;;;33.10;17.73;;;;;;;;;;5009579;28;20209;-61
2023/01/30 04:48:51;;;;;;;29.60;16.13;;;;;;;;;;5014110;28;20292;-61
2023/01/30 04:51:19;;;;;;;32.83;17.53;;;;;;;;;;5005526;28;20582;-61
2023/01/30 04:53:47;;;;;;;33.23;17.70;;;;;;;;;;5012371;28;20205;-62
2023/01/30 04:56:14;;;;;;;30.67;17.07;;;;;;;;;;5015320;28;20264;-61
2023/01/30 04:58:42;;;;;;;36.20;18.60;;;;;;;;;;5014766;28;20689;-62
2023/01/30 05:01:20;;;;;;;36.43;18.10;;;;;;;;;;4998918;28;20209;-61
2023/01/30 05:03:51;;;;;;;61.57;28.23;;;;;;;;;;5019189;28;20626;-62
2023/01/30 05:06:19;;;;;;;32.43;18.40;;;;;;;;;;5012857;28;20198;-62
2023/01/30 05:08:48;;;;;;;38.17;20.43;;;;;;;;;;5014900;28;20248;-61
2023/01/30 05:11:15;;;;;;;42.70;22.10;;;;;;;;;;5014136;28;20221;-64
2023/01/30 05:13:42;;;;;;;42.03;20.83;;;;;;;;;;5014753;28;20287;-61
2023/01/30 05:16:11;;;;;;;54.43;28.80;;;;;;;;;;5014817;28;20252;-62
2023/01/30 05:18:38;;;;;;;38.93;19.73;;;;;;;;;;5013588;28;20225;-61
2023/01/30 05:21:12;;;;;;;47.57;25.17;;;;;;;;;;5014618;28;20604;-60
2023/01/30 05:23:39;;;;;;;39.10;21.50;;;;;;;;;;5014668;28;20321;-61
2023/01/30 05:26:07;;;;;;;37.60;22.37;;;;;;;;;;5014383;28;20678;-62
2023/01/30 05:28:34;;;;;;;49.20;26.83;;;;;;;;;;5017722;28;20212;-61
2023/01/30 05:31:06;;;;;;;45.27;24.43;;;;;;;;;;5034184;28;20225;-63
2023/01/30 05:33:33;;;;;;;35.00;18.47;;;;;;;;;;5020773;28;20221;-61
2023/01/30 05:36:01;;;;;;;33.27;17.53;;;;;;;;;;5013802;28;20267;-61
2023/01/30 05:38:28;;;;;;;38.60;20.30;;;;;;;;;;5013559;28;20547;-63
2023/01/30 05:41:03;;;;;;;55.37;33.67;;;;;;;;;;5014557;28;20240;-62
2023/01/30 05:43:31;;;;;;;36.73;19.27;;;;;;;;;;5013997;28;20224;-62
2023/01/30 05:45:59;;;;;;;39.50;19.43;;;;;;;;;;5012296;28;20686;-63
2023/01/30 05:48:27;;;;;;;34.83;17.67;;;;;;;;;;4995673;28;20316;-62
2023/01/30 05:50:56;;;;;;;39.50;18.80;;;;;;;;;;5013466;28;20261;-60
2023/01/30 05:53:26;;;;;;;35.00;17.80;;;;;;;;;;5012566;28;20589;-62
2023/01/30 05:55:57;;;;;;;35.97;17.90;;;;;;;;;;5015360;28;20232;-63
2023/01/30 05:58:24;;;;;;;31.40;16.50;;;;;;;;;;5016358;28;20279;-63
2023/01/30 06:00:52;;;;;;;31.70;16.47;;;;;;;;;;5017289;28;20310;-62
2023/01/30 06:03:19;;;;;;;40.53;21.37;;;;;;;;;;5016144;28;20603;-62
2023/01/30 06:05:47;;;;;;;48.13;23.37;;;;;;;;;;5017262;28;20704;-60
2023/01/30 06:08:14;;;;;;;46.77;23.90;;;;;;;;;;5000179;28;20589;-61
2023/01/30 06:10:41;;;;;;;53.43;24.07;;;;;;;;;;4998181;28;20222;-61
2023/01/30 06:13:09;;;;;;;42.43;20.90;;;;;;;;;;4997679;28;20564;-68
2023/01/30 06:15:37;;;;;;;51.40;21.37;;;;;;;;;;4998481;28;20297;-62
2023/01/30 06:18:04;;;;;;;72.73;40.10;;;;;;;;;;4998574;28;20264;-61
2023/01/30 06:20:31;;;;;;;47.87;20.80;;;;;;;;;;4998623;28;20232;-59
2023/01/30 06:22:58;;;;;;;55.83;24.13;;;;;;;;;;4997666;28;20206;-61
2023/01/30 06:25:26;;;;;;;45.17;21.23;;;;;;;;;;4998472;28;20520;-61
2023/01/30 06:27:53;;;;;;;49.33;22.17;;;;;;;;;;4998470;28;20206;-62
2023/01/30 06:30:20;;;;;;;51.33;21.60;;;;;;;;;;4998348;28;20198;-61
2023/01/30 06:32:50;;;;;;;45.63;20.40;;;;;;;;;;4998799;28;20214;-62
2023/01/30 06:35:18;;;;;;;40.90;18.00;;;;;;;;;;4998157;28;20206;-61
2023/01/30 06:37:46;;;;;;;49.73;21.30;;;;;;;;;;4997813;28;20289;-61
2023/01/30 06:40:13;;;;;;;46.47;20.13;;;;;;;;;;4998225;28;20537;-62
2023/01/30 06:42:45;;;;;;;52.83;20.93;;;;;;;;;;4998395;28;20202;-61
2023/01/30 06:45:13;;;;;;;54.30;22.73;;;;;;;;;;4998348;28;20206;-61
2023/01/30 06:47:58;;;;;;;55.40;24.97;;;;;;;;;;4998244;28;20206;-61
2023/01/30 06:50:27;;;;;;;34.63;18.20;;;;;;;;;;4998756;28;20218;-61
2023/01/30 06:52:55;;;;;;;39.50;20.43;;;;;;;;;;4998614;28;20538;-61
2023/01/30 06:55:25;;;;;;;41.93;20.97;;;;;;;;;;4998282;28;20202;-61
2023/01/30 06:58:08;;;;;;;33.60;17.43;;;;;;;;;;4997892;28;20212;-61
2023/01/30 07:00:38;;;;;;;29.57;17.33;;;;;;;;;;4998892;28;20229;-61
2023/01/30 07:03:10;;;;;;;33.03;16.73;;;;;;;;;;4998466;28;20594;-61
2023/01/30 07:05:38;;;;;;;32.77;16.53;;;;;;;;;;4998524;28;20194;-61
2023/01/30 07:08:05;;;;;;;31.17;17.13;;;;;;;;;;4997119;28;20248;-61
2023/01/30 07:10:34;;;;;;;28.80;16.20;;;;;;;;;;4997120;28;20272;-61
2023/01/30 07:13:02;;;;;;;26.43;14.63;;;;;;;;;;4998843;28;20261;-61
2023/01/30 07:15:30;;;;;;;26.33;14.57;;;;;;;;;;4998101;28;20234;-61
2023/01/30 07:17:57;;;;;;;30.47;15.50;;;;;;;;;;4998100;28;20592;-61
2023/01/30 07:20:24;;;;;;;31.03;15.23;;;;;;;;;;4997717;28;20222;-60
2023/01/30 07:22:53;;;;;;;24.87;14.70;;;;;;;;;;4997803;28;20218;-61
2023/01/30 07:25:22;;;;;;;35.10;19.13;;;;;;;;;;4998079;28;20662;-61
2023/01/30 07:27:58;;;;;;;25.83;14.93;;;;;;;;;;4998363;28;20210;-61
2023/01/30 07:30:27;;;;;;;24.50;13.63;;;;;;;;;;4997842;28;20206;-61
2023/01/30 07:32:56;;;;;;;28.97;14.73;;;;;;;;;;4997643;28;20272;-61
2023/01/30 07:35:25;;;;;;;28.27;14.80;;;;;;;;;;4996927;28;20206;-61
2023/01/30 07:37:53;;;;;;;24.03;13.13;;;;;;;;;;4997578;28;20229;-61
2023/01/30 07:40:20;;;;;;;29.07;16.10;;;;;;;;;;4997626;28;20276;-61
2023/01/30 07:43:02;;;;;;;30.67;17.53;;;;;;;;;;4997964;28;20213;-61
2023/01/30 07:45:42;;;;;;;28.53;14.93;;;;;;;;;;4997488;28;20265;-60
2023/01/30 07:48:10;;;;;;;27.33;15.70;;;;;;;;;;4997885;28;20213;-61
2023/01/30 07:50:38;;;;;;;26.60;13.93;;;;;;;;;;4997645;28;20596;-61
2023/01/30 07:53:07;;;;;;;35.13;18.23;;;;;;;;;;4996666;28;20265;-61
2023/01/30 07:55:34;;;;;;;39.87;17.90;;;;;;;;;;4996678;28;20233;-61
2023/01/30 07:58:02;;;;;;;30.07;14.67;;;;;;;;;;4997370;28;20638;-61
2023/01/30 08:00:29;;;;;;;26.63;14.60;;;;;;;;;;4996970;28;20605;-60
2023/01/30 08:02:56;;;;;;;28.37;14.40;;;;;;;;;;4997351;28;20206;-61
2023/01/30 08:05:24;;;;;;;28.13;14.00;;;;;;;;;;4997564;28;20595;-61
2023/01/30 08:07:52;;;;;;;23.03;12.90;;;;;;;;;;4997390;28;20210;-61
2023/01/30 08:10:19;;;;;;;27.60;14.53;;;;;;;;;;4997094;28;20210;-61
2023/01/30 08:12:49;;;;;;;26.47;13.90;;;;;;;;;;4997526;28;20213;-60
2023/01/30 08:15:17;;;;;;;31.87;15.57;;;;;;;;;;4996738;28;20250;-60
2023/01/30 08:17:43;;;;;;;31.33;14.80;;;;;;;;;;4997080;28;20213;-60
2023/01/30 08:20:15;;;;;;;26.27;14.00;;;;;;;;;;4996675;28;20658;-61
2023/01/30 08:22:43;;;;;;;26.53;14.87;;;;;;;;;;4996744;28;20661;-61
2023/01/30 08:25:10;;;;;;;31.43;16.03;;;;;;;;;;4996560;28;20202;-60
2023/01/30 08:27:37;;;;;;;27.50;15.23;;;;;;;;;;4996665;28;20206;-61
2023/01/30 08:30:05;;;;;;;26.80;14.67;;;;;;;;;;4996611;28;20635;-61
2023/01/30 08:32:32;;;;;;;29.83;14.83;;;;;;;;;;4996751;28;20264;-61
2023/01/30 08:34:59;;;;;;;31.50;14.90;;;;;;;;;;4996548;28;20588;-62
2023/01/30 08:37:26;;;;;;;28.27;13.90;;;;;;;;;;4996350;28;20205;-61
2023/01/30 08:39:53;;;;;;;28.30;15.53;;;;;;;;;;4996586;28;20222;-61
2023/01/30 08:42:20;;;;;;;43.30;21.27;;;;;;;;;;4996520;28;20206;-61
2023/01/30 08:44:47;;;;;;;33.00;15.70;;;;;;;;;;4996350;28;20217;-61
2023/01/30 08:47:14;;;;;;;29.47;14.73;;;;;;;;;;4996422;28;20202;-61
2023/01/30 08:49:42;;;;;;;32.23;16.53;;;;;;;;;;4996477;28;20275;-61
2023/01/30 08:52:09;;;;;;;36.90;20.80;;;;;;;;;;4996051;28;20209;-61
2023/01/30 08:54:36;;;;;;;36.70;19.03;;;;;;;;;;4996321;28;20713;-61
2023/01/30 08:57:03;;;;;;;38.07;18.23;;;;;;;;;;4996144;28;20265;-61
2023/01/30 08:59:30;;;;;;;42.87;22.43;;;;;;;;;;4996006;28;20666;-61
2023/01/30 09:01:57;;;;;;;29.07;16.70;;;;;;;;;;4996173;28;20214;-61
2023/01/30 09:04:25;;;;;;;29.17;16.20;;;;;;;;;;4996137;28;20206;-62
2023/01/30 09:06:52;;;;;;;31.13;15.03;;;;;;;;;;4995810;28;20202;-61
2023/01/30 09:09:19;;;;;;;27.10;14.80;;;;;;;;;;4995818;28;20225;-61
2023/01/30 09:11:47;;;;;;;34.07;15.90;;;;;;;;;;4996063;28;20229;-61
2023/01/30 09:14:18;;;;;;;38.30;18.90;;;;;;;;;;4996022;28;20205;-61
2023/01/30 09:16:46;;;;;;;28.00;16.83;;;;;;;;;;4995806;28;20248;-61
2023/01/30 09:19:14;;;;;;;28.77;15.97;;;;;;;;;;4995925;28;20198;-61
2023/01/30 09:21:41;;;;;;;37.47;18.90;;;;;;;;;;4995909;28;20202;-61
2023/01/30 09:24:08;;;;;;;32.47;19.17;;;;;;;;;;4995605;28;20214;-61
2023/01/30 09:26:35;;;;;;;34.23;21.70;;;;;;;;;;4996175;28;20218;-61
2023/01/30 09:29:02;;;;;;;27.07;15.33;;;;;;;;;;4995832;28;20214;-61
2023/01/30 09:31:29;;;;;;;24.63;14.67;;;;;;;;;;4995249;28;20206;-61
2023/01/30 09:33:57;;;;;;;24.53;13.93;;;;;;;;;;4995767;28;20217;-61
2023/01/30 09:36:24;;;;;;;26.53;15.10;;;;;;;;;;4995882;28;20220;-61
2023/01/30 09:38:51;;;;;;;23.10;13.67;;;;;;;;;;4995739;28;20202;-61
2023/01/30 09:41:30;;;;;;;30.60;15.70;;;;;;;;;;4995497;28;20250;-62
2023/01/30 09:44:16;;;;;;;27.07;14.50;;;;;;;;;;4994820;28;20646;-61
2023/01/30 09:47:01;;;;;;;25.97;14.23;;;;;;;;;;4994810;28;20198;-61
2023/01/30 09:49:54;;;;;;;26.40;13.40;;;;;;;;;;4995481;28;20213;-61
2023/01/30 09:52:27;;;;;;;28.23;14.33;;;;;;;;;;4990090;28;20615;-61
2023/01/30 09:55:02;;;;;;;29.13;14.50;;;;;;;;;;4995590;28;20206;-61
2023/01/30 09:57:29;;;;;;;36.20;15.37;;;;;;;;;;4994720;28;20217;-61
2023/01/30 10:00:16;;;;;;;35.20;16.07;;;;;;;;;;4995388;28;20240;-61
2023/01/30 10:02:44;;;;;;;34.13;16.07;;;;;;;;;;4995160;28;20206;-61
2023/01/30 10:05:11;;;;;;;36.30;18.47;;;;;;;;;;4995346;28;20205;-62
2023/01/30 10:07:59;;;;;;;31.73;18.93;;;;;;;;;;4995363;28;20293;-61
2023/01/30 10:10:43;;;;;;;34.40;19.17;;;;;;;;;;4994886;28;20195;-61
2023/01/30 10:13:18;;;;;;;39.43;19.00;;;;;;;;;;4995407;28;20202;-61
2023/01/30 10:16:14;;;;;;;32.40;17.07;;;;;;;;;;4994344;28;20237;-61
2023/01/30 10:18:48;;;;;;;36.33;19.00;;;;;;;;;;4994889;28;20210;-62
2023/01/30 10:21:23;;;;;;;28.50;16.57;;;;;;;;;;4995262;28;20217;-61
2023/01/30 10:23:55;;;;;;;48.97;25.67;;;;;;;;;;4995148;28;20209;-61
2023/01/30 10:26:25;;;;;;;55.03;31.30;;;;;;;;;;4995290;28;20201;-61
2023/01/30 10:28:57;;;;;;;35.60;18.50;;;;;;;;;;4994098;28;20634;-61
2023/01/30 10:32:10;;;;;;;33.83;18.63;;;;;;;;;;4994976;28;20643;-61
2023/01/30 10:34:42;;;;;;;34.80;17.87;;;;;;;;;;4975170;28;20198;-61
2023/01/30 10:37:16;;;;;;;35.50;20.33;;;;;;;;;;4994411;28;20233;-61
2023/01/30 10:40:01;;;;;;;33.37;16.87;;;;;;;;;;4994272;28;20241;-61
2023/01/30 10:42:48;;;;;;;31.73;15.87;;;;;;;;;;4997370;28;20268;-61
2023/01/30 10:45:19;;;;;;;33.60;16.93;;;;;;;;;;4998136;28;20198;-62
2023/01/30 10:48:39;;;;;;;34.60;16.80;;;;;;;;;;4998885;28;20357;-61
2023/01/30 10:51:27;;;;;;;29.13;16.23;;;;;;;;;;4998387;28;20225;-61
2023/01/30 10:54:16;;;;;;;31.60;17.90;;;;;;;;;;4997824;28;20226;-61
2023/01/30 10:56:45;;;;;;;29.70;17.10;;;;;;;;;;4997845;28;20191;-61
2023/01/30 10:59:23;;;;;;;27.63;16.00;;;;;;;;;;4998451;28;20511;-61
2023/01/30 11:01:57;;;;;;;34.73;17.23;;;;;;;;;;4998504;28;20546;-62
2023/01/30 11:04:25;;;;;;;29.27;17.00;;;;;;;;;;4997753;28;20204;-61
2023/01/30 11:06:52;;;;;;;34.53;18.10;;;;;;;;;;4998321;28;20214;-61
2023/01/30 11:09:19;;;;;;;34.83;18.07;;;;;;;;;;4998105;28;20225;-61
2023/01/30 11:11:52;;;;;;;34.10;18.27;;;;;;;;;;4998099;28;20267;-61
2023/01/30 11:14:20;;;;;;;34.43;19.07;;;;;;;;;;4998376;28;20210;-61
2023/01/30 11:16:49;;;;;;;32.00;18.03;;;;;;;;;;4997729;28;20300;-61
2023/01/30 11:19:19;;;;;;;36.60;19.20;;;;;;;;;;4997598;28;20213;-61
2023/01/30 11:21:52;;;;;;;32.17;17.33;;;;;;;;;;4998053;28;20234;-61
2023/01/30 11:24:37;;;;;;;35.63;19.50;;;;;;;;;;4998049;28;20643;-61
2023/01/30 11:27:17;;;;;;;38.40;18.67;;;;;;;;;;4998059;28;20206;-61
2023/01/30 11:29:46;;;;;;;32.70;17.70;;;;;;;;;;4997896;28;20716;-61
2023/01/30 11:32:25;;;;;;;38.10;19.03;;;;;;;;;;4997598;28;20209;-61
2023/01/30 11:35:17;;;;;;;33.13;18.90;;;;;;;;;;4998286;28;20206;-61
2023/01/30 11:37:44;;;;;;;33.90;18.60;;;;;;;;;;4996914;28;20206;-62
2023/01/30 11:40:24;;;;;;;38.27;18.40;;;;;;;;;;4997561;28;20712;-61
2023/01/30 11:42:58;;;;;;;35.17;18.60;;;;;;;;;;4997859;28;20222;-61
2023/01/30 11:45:28;;;;;;;38.83;19.20;;;;;;;;;;4997740;28;20209;-61
2023/01/30 11:48:02;;;;;;;36.17;19.13;;;;;;;;;;4998140;28;20202;-62
2023/01/30 11:50:42;;;;;;;37.37;19.00;;;;;;;;;;4997066;28;20264;-61
2023/01/30 11:53:43;;;;;;;36.40;18.90;;;;;;;;;;4997016;28;20209;-62
2023/01/30 11:56:22;;;;;;;38.67;18.90;;;;;;;;;;4997576;28;20218;-61
2023/01/30 11:58:57;;;;;;;35.07;19.27;;;;;;;;;;4997603;28;20190;-61
2023/01/30 12:01:30;;;;;;;35.90;19.73;;;;;;;;;;4996494;28;20280;-61
2023/01/30 12:03:57;;;;;;;35.20;20.57;;;;;;;;;;4996567;28;20213;-61
2023/01/30 12:06:31;;;;;;;37.97;21.10;;;;;;;;;;4997400;28;20280;-61
2023/01/30 12:09:00;;;;;;;39.47;21.07;;;;;;;;;;4997252;28;20205;-62
2023/01/30 12:11:39;;;;;;;60.83;28.37;;;;;;;;;;4997223;28;20272;-61
2023/01/30 12:14:44;;;;;;;75.57;34.10;;;;;;;;;;4997123;28;20250;-61
2023/01/30 12:17:20;;;;;;;129.13;53.80;;;;;;;;;;4979463;28;20210;-61
2023/01/30 12:19:47;;;;;;;138.17;58.17;;;;;;;;;;4979612;28;20206;-61
2023/01/30 12:22:19;;;;;;;59.70;33.63;;;;;;;;;;4995501;28;20296;-61
2023/01/30 12:25:11;;;;;;;57.97;34.63;;;;;;;;;;4979050;28;20226;-61
2023/01/30 12:27:58;;;;;;;77.37;50.23;;;;;;;;;;4994942;28;20210;-61
2023/01/30 12:30:31;;;;;;;152.33;79.80;;;;;;;;;;4979112;28;20206;-61
2023/01/30 12:33:01;;;;;;;100.57;58.37;;;;;;;;;;4979284;28;20206;-61
2023/01/30 12:36:14;;;;;;;73.47;42.03;;;;;;;;;;4995305;28;20213;-61
2023/01/30 12:38:59;;;;;;;42.30;21.80;;;;;;;;;;4987417;28;20218;-61
2023/01/30 12:41:45;;;;;;;40.80;20.37;;;;;;;;;;4994899;28;20683;-61
2023/01/30 12:44:47;;;;;;;41.43;20.63;;;;;;;;;;4995185;28;20256;-61
2023/01/30 12:47:36;;;;;;;46.20;27.40;;;;;;;;;;4992283;28;20287;-61
2023/01/30 12:50:20;;;;;;;41.37;21.80;;;;;;;;;;5014912;28;20205;-63
2023/01/30 12:53:11;;;;;;;38.00;21.03;;;;;;;;;;5014483;28;20284;-67
2023/01/30 12:55:48;;;;;;;41.50;20.97;;;;;;;;;;5030370;28;20229;-61
2023/01/30 12:58:48;;;;;;;42.37;21.53;;;;;;;;;;5014403;28;20212;-60
2023/01/30 13:01:23;;;;;;;45.93;23.30;;;;;;;;;;5014659;28;20299;-64
2023/01/30 13:04:15;;;;;;;44.67;24.47;;;;;;;;;;5014808;28;20240;-61
2023/01/30 13:07:22;;;;;;;41.60;23.20;;;;;;;;;;5013941;28;20569;-63
2023/01/30 13:09:52;;;;;;;46.63;25.37;;;;;;;;;;5013048;28;20233;-62
2023/01/30 13:12:19;;;;;;;42.10;23.60;;;;;;;;;;5014890;28;20284;-63
2023/01/30 13:15:04;;;;;;;49.00;25.83;;;;;;;;;;5014214;28;20249;-63
2023/01/30 13:18:04;;;;;;;49.10;26.33;;;;;;;;;;5014796;28;20304;-64
2023/01/30 13:20:51;;;;;;;49.63;26.80;;;;;;;;;;5011377;28;20283;-63
2023/01/30 13:23:41;;;;;;;47.00;23.00;;;;;;;;;;5013407;28;20585;-62
2023/01/30 13:26:15;;;;;;;46.97;24.30;;;;;;;;;;4993780;28;20261;-62
2023/01/30 13:28:48;;;;;;;48.87;23.13;;;;;;;;;;5010090;28;20239;-61
2023/01/30 13:31:20;;;;;;;49.57;23.60;;;;;;;;;;5009795;28;20249;-61
2023/01/30 13:33:49;;;;;;;44.40;24.00;;;;;;;;;;5013671;28;20689;-63
2023/01/30 13:36:23;;;;;;;59.20;27.93;;;;;;;;;;5013232;28;20237;-61
2023/01/30 13:39:04;;;;;;;50.07;26.33;;;;;;;;;;5012778;28;20231;-62
2023/01/30 13:41:38;;;;;;;47.97;25.53;;;;;;;;;;5013169;28;20345;-60
2023/01/30 13:44:17;;;;;;;55.10;26.93;;;;;;;;;;5012941;28;20628;-65
2023/01/30 13:46:44;;;;;;;65.27;34.13;;;;;;;;;;5013785;28;20756;-65
2023/01/30 13:49:18;;;;;;;53.07;29.77;;;;;;;;;;5004596;28;20623;-64
2023/01/30 13:51:50;;;;;;;47.67;25.07;;;;;;;;;;5008952;28;20228;-62
2023/01/30 13:54:20;;;;;;;49.10;25.80;;;;;;;;;;5011726;28;20645;-62
2023/01/30 13:57:05;;;;;;;49.10;25.63;;;;;;;;;;5013981;28;20228;-63
2023/01/30 14:00:08;;;;;;;46.73;25.27;;;;;;;;;;5014233;28;20592;-64
2023/01/30 14:03:18;;;;;;;57.80;29.70;;;;;;;;;;4994877;28;20252;-64
2023/01/30 14:05:55;;;;;;;48.60;25.43;;;;;;;;;;4996665;28;20240;-64
2023/01/30 14:08:24;;;;;;;57.43;33.10;;;;;;;;;;5013328;28;20228;-66
2023/01/30 14:10:54;;;;;;;47.07;25.90;;;;;;;;;;5013796;28;20233;-64
2023/01/30 14:13:22;;;;;;;50.27;25.17;;;;;;;;;;5010762;28;20581;-66
2023/01/30 14:16:08;;;;;;;48.73;24.87;;;;;;;;;;5000766;28;20248;-65
2023/01/30 14:18:37;;;;;;;43.10;23.57;;;;;;;;;;5017976;28;20240;-64
2023/01/30 14:21:21;;;;;;;40.60;24.17;;;;;;;;;;5016729;28;20233;-62
2023/01/30 14:23:59;;;;;;;47.43;26.47;;;;;;;;;;5017395;28;20328;-62
2023/01/30 14:26:49;;;;;;;47.83;24.57;;;;;;;;;;5017347;28;20232;-61
2023/01/30 14:29:41;;;;;;;46.23;25.30;;;;;;;;;;5016825;28;20229;-62
2023/01/30 14:32:54;;;;;;;45.70;24.27;;;;;;;;;;5017273;28;20233;-64
2023/01/30 14:35:25;;;;;;;62.90;31.27;;;;;;;;;;5013605;28;20703;-64
2023/01/30 14:38:16;;;;;;;77.93;36.70;;;;;;;;;;5017059;28;20221;-65
2023/01/30 14:40:48;;;;;;;52.10;26.53;;;;;;;;;;5016760;28;20213;-64
2023/01/30 14:43:40;;;;;;;58.90;32.43;;;;;;;;;;5016181;28;20225;-63
2023/01/30 14:46:16;;;;;;;54.33;25.27;;;;;;;;;;5016759;28;20213;-65
2023/01/30 14:48:48;;;;;;;43.80;24.77;;;;;;;;;;5017556;28;20224;-64
2023/01/30 14:51:20;;;;;;;46.53;23.83;;;;;;;;;;5018309;28;20626;-64
2023/01/30 14:54:01;;;;;;;66.57;31.37;;;;;;;;;;5029781;28;20247;-66
2023/01/30 14:56:34;;;;;;;50.93;26.70;;;;;;;;;;5026331;28;20582;-67
2023/01/30 14:59:04;;;;;;;55.83;28.97;;;;;;;;;;5017143;28;20225;-64
2023/01/30 15:02:02;;;;;;;47.97;27.10;;;;;;;;;;5016097;28;20299;-65